createdAt,value
2018-05-08T00:00:48.989Z,17.23
2018-05-08T00:03:19.558Z,14.53
2018-05-08T00:05:49.313Z,15.30
2018-05-08T00:08:19.074Z,14.30
2018-05-08T00:10:48.813Z,15.07
2018-05-08T00:13:18.565Z,14.87
2018-05-08T00:15:49.101Z,14.10
2018-05-08T00:18:20.474Z,12.00
2018-05-08T00:20:50.217Z,11.57
2018-05-08T00:23:19.980Z,13.33
2018-05-08T00:25:49.748Z,12.40
2018-05-08T00:28:19.488Z,10.70
2018-05-08T00:30:49.980Z,11.60
2018-05-08T00:33:19.730Z,10.60
2018-05-08T00:35:50.247Z,9.80
2018-05-08T00:38:20.759Z,10.80
2018-05-08T00:40:50.498Z,9.77
2018-05-08T00:43:21.020Z,9.90
2018-05-08T00:45:51.594Z,10.20
2018-05-08T00:48:21.342Z,9.27
2018-05-08T00:50:51.070Z,8.20
2018-05-08T00:53:21.541Z,8.53
2018-05-08T00:55:51.303Z,8.90
2018-05-08T00:58:21.848Z,9.10
2018-05-08T01:00:52.375Z,8.40
2018-05-08T01:03:22.934Z,8.43
2018-05-08T01:05:52.664Z,8.90
2018-05-08T01:08:22.419Z,8.33
2018-05-08T01:10:52.904Z,8.80
2018-05-08T01:13:23.142Z,8.90
2018-05-08T01:15:53.078Z,8.60
2018-05-08T01:18:23.627Z,9.57
2018-05-08T01:20:53.382Z,7.27
2018-05-08T01:23:23.131Z,7.73
2018-05-08T01:25:53.650Z,8.87
2018-05-08T01:28:23.411Z,7.83
2018-05-08T01:30:53.194Z,7.83
2018-05-08T01:33:23.707Z,7.17
2018-05-08T01:35:54.408Z,8.10
2018-05-08T01:38:24.262Z,8.47
2018-05-08T01:40:54.781Z,8.60
2018-05-08T01:43:25.323Z,7.43
2018-05-08T01:45:55.832Z,8.07
2018-05-08T01:48:25.940Z,7.97
2018-05-08T01:50:55.698Z,8.30
2018-05-08T01:53:25.458Z,9.70
2018-05-08T01:55:55.225Z,9.17
2018-05-08T01:58:24.982Z,8.80
2018-05-08T02:00:54.764Z,9.13
2018-05-08T02:03:24.521Z,8.30
2018-05-08T02:05:55.017Z,7.83
2018-05-08T02:08:24.774Z,8.30
2018-05-08T02:10:55.294Z,6.73
2018-05-08T02:13:25.830Z,9.40
2018-05-08T02:15:56.327Z,6.43
2018-05-08T02:18:26.071Z,7.87
2018-05-08T02:20:55.807Z,8.20
2018-05-08T02:23:25.582Z,7.80
2018-05-08T02:25:56.819Z,8.50
2018-05-08T02:28:28.394Z,8.27
2018-05-08T02:30:58.168Z,8.20
2018-05-08T02:33:28.693Z,7.80
2018-05-08T02:35:58.447Z,8.97
2018-05-08T02:38:29.068Z,8.30
2018-05-08T02:40:59.588Z,8.83
2018-05-08T02:43:30.123Z,8.33
2018-05-08T02:46:00.643Z,8.40
2018-05-08T02:48:31.166Z,9.17
2018-05-08T02:51:00.911Z,9.30
2018-05-08T02:53:30.627Z,9.70
2018-05-08T02:56:00.342Z,9.73
2018-05-08T02:58:30.076Z,9.40
2018-05-08T03:00:59.811Z,8.80
2018-05-08T03:03:29.623Z,9.70
2018-05-08T03:06:00.338Z,9.20
2018-05-08T03:08:30.118Z,9.20
2018-05-08T03:11:00.051Z,9.87
2018-05-08T03:13:29.826Z,11.03
2018-05-08T03:15:59.574Z,9.50
2018-05-08T03:18:29.934Z,12.43
2018-05-08T03:20:59.640Z,9.80
2018-05-08T03:23:30.179Z,11.13
2018-05-08T03:26:00.722Z,10.20
2018-05-08T03:28:31.273Z,10.33
2018-05-08T03:31:01.160Z,9.40
2018-05-08T03:33:31.693Z,9.80
2018-05-08T03:36:02.931Z,10.93
2018-05-08T03:38:33.462Z,9.57
2018-05-08T03:41:03.982Z,9.57
2018-05-08T03:43:34.527Z,9.93
2018-05-08T03:46:05.048Z,11.63
2018-05-08T03:48:35.606Z,10.70
2018-05-08T03:51:05.551Z,9.40
2018-05-08T03:53:35.297Z,12.10
2018-05-08T03:56:05.835Z,10.37
2018-05-08T03:58:36.360Z,11.67
2018-05-08T04:01:18.036Z,10.83
2018-05-08T04:03:58.779Z,11.30
2018-05-08T04:09:27.552Z,11.47
2018-05-08T04:11:57.274Z,12.50
2018-05-08T04:14:27.070Z,11.90
2018-05-08T04:16:56.826Z,13.60
2018-05-08T04:19:26.569Z,13.93
2018-05-08T04:21:57.079Z,13.47
2018-05-08T04:24:26.908Z,13.10
2018-05-08T04:26:57.458Z,14.20
2018-05-08T04:29:27.190Z,13.07
2018-05-08T04:31:56.939Z,13.47
2018-05-08T04:34:26.648Z,13.97
2018-05-08T04:36:56.435Z,13.10
2018-05-08T04:39:26.202Z,14.97
2018-05-08T04:41:56.720Z,15.13
2018-05-08T04:44:26.492Z,13.40
2018-05-08T04:46:56.284Z,14.43
2018-05-08T04:49:26.982Z,14.27
2018-05-08T04:51:57.485Z,12.80
2018-05-08T04:54:27.242Z,13.13
2018-05-08T04:56:57.966Z,12.83
2018-05-08T04:59:28.628Z,15.90
2018-05-08T05:01:58.369Z,14.47
2018-05-08T05:04:30.714Z,15.30
2018-05-08T05:07:00.519Z,14.70
2018-05-08T05:09:30.399Z,14.13
2018-05-08T05:12:00.096Z,14.80
2018-05-08T05:14:30.623Z,14.30
2018-05-08T05:17:01.139Z,15.20
2018-05-08T05:19:30.891Z,15.73
2018-05-08T05:22:00.643Z,15.80
2018-05-08T05:24:30.454Z,13.90
2018-05-08T05:27:00.243Z,16.10
2018-05-08T05:29:29.984Z,15.43
2018-05-08T05:31:59.753Z,15.67
2018-05-08T05:34:29.486Z,15.20
2018-05-08T05:36:59.242Z,15.60
2018-05-08T05:39:29.768Z,15.60
2018-05-08T05:42:00.346Z,16.30
2018-05-08T05:44:30.094Z,16.73
2018-05-08T05:46:59.840Z,14.48
2018-05-08T05:49:30.622Z,18.17
2018-05-08T05:52:00.393Z,17.30
2018-05-08T05:54:30.182Z,16.47
2018-05-08T05:57:00.691Z,17.03
2018-05-08T05:59:30.441Z,16.30
2018-05-08T06:02:00.216Z,13.53
2018-05-08T06:04:30.160Z,13.87
2018-05-08T06:06:59.946Z,13.87
2018-05-08T06:09:29.699Z,14.40
2018-05-08T06:11:59.511Z,13.13
2018-05-08T06:14:29.342Z,14.10
2018-05-08T06:16:59.074Z,13.97
2018-05-08T06:19:28.915Z,16.17
2018-05-08T06:21:59.418Z,15.53
2018-05-08T06:24:29.167Z,14.70
2018-05-08T06:26:58.944Z,15.20
2018-05-08T06:29:28.707Z,15.83
2018-05-08T06:31:58.548Z,15.00
2018-05-08T06:34:28.295Z,14.07
2018-05-08T06:36:58.850Z,15.50
2018-05-08T06:39:28.626Z,16.00
2018-05-08T06:41:59.174Z,16.27
2018-05-08T06:44:29.707Z,15.50
2018-05-08T06:47:00.209Z,15.10
2018-05-08T06:49:29.975Z,17.67
2018-05-08T06:51:59.778Z,16.60
2018-05-08T06:54:29.586Z,16.63
2018-05-08T06:57:00.216Z,18.00
2018-05-08T06:59:30.112Z,16.73
2018-05-08T07:02:01.384Z,17.07
2018-05-08T07:04:31.130Z,18.60
2018-05-08T07:07:00.882Z,19.20
2018-05-08T07:09:32.493Z,20.43
2018-05-08T07:12:03.439Z,21.57
2018-05-08T07:14:34.111Z,20.60
2018-05-08T07:17:03.867Z,20.87
2018-05-08T07:19:33.612Z,20.83
2018-05-08T07:22:04.124Z,21.00
2018-05-08T07:24:34.849Z,19.80
2018-05-08T07:27:05.481Z,20.50
2018-05-08T07:29:35.298Z,21.20
2018-05-08T07:32:05.067Z,21.20
2018-05-08T07:34:35.703Z,22.20
2018-05-08T07:37:05.528Z,20.53
2018-05-08T07:39:35.304Z,20.27
2018-05-08T07:42:05.040Z,19.33
2018-05-08T07:44:35.802Z,20.93
2018-05-08T07:47:05.551Z,21.70
2018-05-08T07:49:36.074Z,20.50
2018-05-08T07:52:06.605Z,17.93
2018-05-08T07:54:37.145Z,20.83
2018-05-08T07:57:06.926Z,18.03
2018-05-08T07:59:36.753Z,19.60
2018-05-08T08:02:07.286Z,19.10
2018-05-08T08:04:37.828Z,18.97
2018-05-08T08:07:07.570Z,20.50
2018-05-08T08:09:37.311Z,18.60
2018-05-08T08:12:07.084Z,19.47
2018-05-08T08:14:36.835Z,19.33
2018-05-08T08:17:06.594Z,19.07
2018-05-08T08:19:36.376Z,17.13
2018-05-08T08:22:07.143Z,19.73
2018-05-08T08:24:37.114Z,18.00
2018-05-08T08:27:06.909Z,15.40
2018-05-08T08:29:36.729Z,17.10
2018-05-08T08:32:06.572Z,17.00
2018-05-08T08:34:42.519Z,20.13
2018-05-08T08:37:13.026Z,19.17
2018-05-08T08:39:42.800Z,17.53
2018-05-08T08:42:12.594Z,17.00
2018-05-08T08:44:42.371Z,18.47
2018-05-08T08:47:12.885Z,17.70
2018-05-08T08:49:42.777Z,18.93
2018-05-08T08:52:12.564Z,18.27
2018-05-08T08:54:42.341Z,19.97
2018-05-08T08:57:12.853Z,18.03
2018-05-08T08:59:42.598Z,20.07
2018-05-08T09:02:13.132Z,19.33
2018-05-08T09:04:42.882Z,19.37
2018-05-08T09:07:12.653Z,17.47
2018-05-08T09:09:43.183Z,19.27
2018-05-08T09:12:12.942Z,19.20
2018-05-08T09:14:42.910Z,21.30
2018-05-08T09:17:12.714Z,20.30
2018-05-08T09:19:43.295Z,22.30
2018-05-08T09:22:13.054Z,19.27
2018-05-08T09:24:42.831Z,21.73
2018-05-08T09:27:12.572Z,20.57
2018-05-08T09:29:43.105Z,21.43
2018-05-08T09:32:13.614Z,21.93
2018-05-08T09:34:43.382Z,21.10
2018-05-08T09:37:13.120Z,23.23
2018-05-08T09:39:42.940Z,23.33
2018-05-08T09:42:12.691Z,21.13
2018-05-08T09:44:42.426Z,19.90
2018-05-08T09:47:12.173Z,19.70
2018-05-08T09:49:41.940Z,20.20
2018-05-08T09:52:11.708Z,20.87
2018-05-08T09:54:42.247Z,18.43
2018-05-08T09:57:12.746Z,20.40
2018-05-08T09:59:42.534Z,19.30
2018-05-08T10:02:12.428Z,18.50
2018-05-08T10:04:42.187Z,17.67
2018-05-08T10:07:11.940Z,17.80
2018-05-08T10:09:41.728Z,17.40
2018-05-08T10:12:12.391Z,19.20
2018-05-08T10:14:42.146Z,20.03
2018-05-08T10:17:11.915Z,20.07
2018-05-08T10:19:41.709Z,19.70
2018-05-08T10:22:12.252Z,20.97
2018-05-08T10:24:42.034Z,21.80
2018-05-08T10:27:12.576Z,19.33
2018-05-08T10:29:42.341Z,22.30
2018-05-08T15:38:03.813Z,30.17
2018-05-08T15:40:34.552Z,31.60
2018-05-08T15:43:04.976Z,33.55
2018-05-08T15:45:35.542Z,32.80
2018-05-08T15:48:05.318Z,29.50
2018-05-08T15:50:35.064Z,30.97
2018-05-08T15:53:05.374Z,30.53
2018-05-08T15:55:35.085Z,30.60
2018-05-08T15:58:04.820Z,34.20
2018-05-08T16:00:34.572Z,32.20
2018-05-08T16:03:05.088Z,33.00
2018-05-08T16:05:34.843Z,34.07
2018-05-08T16:08:04.628Z,32.60
2018-05-08T16:10:35.153Z,33.67
2018-05-08T16:13:05.692Z,32.83
2018-05-08T16:15:35.403Z,32.07
2018-05-08T16:18:06.008Z,32.23
2018-05-08T16:20:35.746Z,32.10
2018-05-08T16:23:05.503Z,32.33
2018-05-08T16:25:35.249Z,32.53
2018-05-08T16:28:05.817Z,32.60
2018-05-08T16:30:35.575Z,31.57
2018-05-08T16:33:05.505Z,34.47
2018-05-08T16:35:36.069Z,33.57
2018-05-08T16:38:05.850Z,33.57
2018-05-08T16:40:36.337Z,35.63
2018-05-08T16:43:06.107Z,33.60
2018-05-08T16:45:35.839Z,34.60
2018-05-08T16:48:05.574Z,35.23
2018-05-08T16:50:35.317Z,35.57
2018-05-08T16:53:05.848Z,33.10
2018-05-08T16:55:36.324Z,33.83
2018-05-08T16:58:06.997Z,34.07
2018-05-08T17:00:36.774Z,34.63
2018-05-08T17:03:06.529Z,33.37
2018-05-08T17:05:37.210Z,36.13
2018-05-08T17:08:06.976Z,35.53
2018-05-08T17:10:37.583Z,34.40
2018-05-08T17:13:07.415Z,34.60
2018-05-08T17:15:38.057Z,34.07
2018-05-08T17:18:08.579Z,32.77
2018-05-08T17:20:39.118Z,35.07
2018-05-08T17:23:09.662Z,34.73
2018-05-08T17:25:40.320Z,34.73
2018-05-08T17:28:10.166Z,34.70
2018-05-08T17:30:39.952Z,34.73
2018-05-08T17:33:09.684Z,33.40
2018-05-08T17:35:39.431Z,35.17
2018-05-08T17:38:09.210Z,36.43
2018-05-08T17:40:39.682Z,38.47
2018-05-08T17:43:09.450Z,38.60
2018-05-08T17:45:39.954Z,37.40
2018-05-08T17:48:09.695Z,38.30
2018-05-08T17:50:40.212Z,37.37
2018-05-08T17:53:09.922Z,37.97
2018-05-08T17:55:39.648Z,39.00
2018-05-08T17:58:10.164Z,40.37
2018-05-08T18:00:40.089Z,40.07
2018-05-08T18:03:11.635Z,41.53
2018-05-08T18:05:41.399Z,36.87
2018-05-08T18:08:11.147Z,38.13
2018-05-08T18:10:40.893Z,36.63
2018-05-08T18:13:10.619Z,36.03
2018-05-08T18:15:40.351Z,38.47
2018-05-08T18:18:10.079Z,38.73
2018-05-08T18:20:39.819Z,40.13
2018-05-08T18:23:10.337Z,41.10
2018-05-08T18:25:40.099Z,43.07
2018-05-08T18:28:09.914Z,43.30
2018-05-08T18:30:39.656Z,43.80
2018-05-08T18:33:10.363Z,43.90
2018-05-08T18:35:40.789Z,41.67
2018-05-08T18:38:10.654Z,40.90
2018-05-08T18:40:41.917Z,40.80
2018-05-08T18:43:11.659Z,41.50
2018-05-08T18:45:41.434Z,44.13
2018-05-08T18:48:11.162Z,43.57
2018-05-08T18:50:42.276Z,39.37
2018-05-08T18:53:12.785Z,39.93
2018-05-08T18:55:42.540Z,39.77
2018-05-08T18:58:12.295Z,42.20
2018-05-08T19:00:47.165Z,41.97
2018-05-08T19:03:17.670Z,40.13
2018-05-08T19:05:48.166Z,38.30
2018-05-08T19:08:17.950Z,37.33
2018-05-08T19:10:47.876Z,38.30
2018-05-08T19:13:17.623Z,38.00
2018-05-08T19:15:52.691Z,38.70
2018-05-08T19:18:28.409Z,38.00
2018-05-08T19:20:58.214Z,39.53
2018-05-08T19:23:28.071Z,38.60
2018-05-08T19:25:57.839Z,37.77
2018-05-08T19:28:32.739Z,36.73
2018-05-08T19:31:02.460Z,36.20
2018-05-08T19:33:32.211Z,37.40
2018-05-08T19:36:07.252Z,35.67
2018-05-08T19:38:37.237Z,36.50
2018-05-08T19:41:07.017Z,35.23
2018-05-08T19:43:36.763Z,36.30
2018-05-08T19:46:06.547Z,33.90
2018-05-08T19:48:37.170Z,34.73
2018-05-08T19:51:06.943Z,34.70
2018-05-08T19:53:37.452Z,34.37
2018-05-08T19:56:07.205Z,30.63
2018-05-08T19:58:36.958Z,32.17
2018-05-08T20:01:06.897Z,32.67
2018-05-08T20:03:36.666Z,30.80
2018-05-08T20:06:06.422Z,30.23
2018-05-08T20:08:37.124Z,33.30
2018-05-08T20:11:06.868Z,32.10
2018-05-08T20:13:36.661Z,31.30
2018-05-08T20:16:06.455Z,30.80
2018-05-08T20:18:36.187Z,29.60
2018-05-08T20:21:05.947Z,32.20
2018-05-08T20:23:35.716Z,29.90
2018-05-08T20:26:05.477Z,30.40
2018-05-08T20:28:37.447Z,30.17
2018-05-08T20:31:07.984Z,31.10
2018-05-08T20:33:37.730Z,29.80
2018-05-08T20:36:07.572Z,31.00
2018-05-08T20:38:38.308Z,30.83
2018-05-08T20:41:08.063Z,29.60
2018-05-08T20:43:37.791Z,28.23
2018-05-08T20:46:07.550Z,28.47
2018-05-08T20:48:38.055Z,27.77
2018-05-08T20:51:09.504Z,30.97
2018-05-08T20:53:40.855Z,27.23
2018-05-08T20:56:11.395Z,28.57
2018-05-08T20:58:41.189Z,29.10
2018-05-08T21:01:11.760Z,29.13
2018-05-08T21:03:41.679Z,28.10
2018-05-08T21:06:12.401Z,30.37
2018-05-08T21:08:42.131Z,27.97
2018-05-08T21:11:11.973Z,28.10
2018-05-08T21:13:41.727Z,27.20
2018-05-08T21:16:11.495Z,27.73
2018-05-08T21:18:41.235Z,28.00
2018-05-08T21:21:11.756Z,29.33
2018-05-08T21:23:42.260Z,27.90
2018-05-08T21:26:12.003Z,28.93
2018-05-08T21:28:48.034Z,27.57
2018-05-08T21:31:17.803Z,27.97
2018-05-08T21:33:47.760Z,28.30
2018-05-08T21:36:17.504Z,29.00
2018-05-08T21:38:47.246Z,29.40
2018-05-08T21:41:17.009Z,29.73
2018-05-08T21:43:47.539Z,27.43
2018-05-08T21:46:18.038Z,28.87
2018-05-08T21:48:47.837Z,30.20
2018-05-08T21:51:17.580Z,28.47
2018-05-08T21:53:48.110Z,29.50
2018-05-08T21:56:18.611Z,25.37
2018-05-08T21:58:48.352Z,26.30
2018-05-08T22:01:18.866Z,28.60
2018-05-08T22:03:48.614Z,29.20
2018-05-08T22:06:18.382Z,28.03
2018-05-08T22:08:48.127Z,28.37
2018-05-08T22:11:17.869Z,29.53
2018-05-08T22:13:48.564Z,28.90
2018-05-08T22:16:19.059Z,29.87
2018-05-08T22:18:48.783Z,29.60
2018-05-08T22:21:18.506Z,29.50
2018-05-08T22:23:49.038Z,28.33
2018-05-08T22:26:20.384Z,28.80
2018-05-08T22:28:50.878Z,29.47
2018-05-08T22:31:20.648Z,28.30
2018-05-08T22:33:50.384Z,29.07
2018-05-08T22:36:20.143Z,28.00
2018-05-08T22:38:50.695Z,26.80
2018-05-08T22:41:20.446Z,27.00
2018-05-08T22:43:51.080Z,29.30
2018-05-08T22:46:20.861Z,29.87
2018-05-08T22:48:51.440Z,29.33
2018-05-08T22:51:21.195Z,30.97
2018-05-08T22:53:50.916Z,31.90
2018-05-08T22:56:20.649Z,31.00
2018-05-08T22:58:50.388Z,31.60
2018-05-08T23:01:20.869Z,30.47
2018-05-08T23:03:50.611Z,31.23
2018-05-08T23:06:20.420Z,30.13
2018-05-08T23:08:50.242Z,31.83
2018-05-08T23:11:20.081Z,31.03
2018-05-08T23:13:50.761Z,30.53
2018-05-08T23:16:20.510Z,30.27
2018-05-08T23:18:50.988Z,32.30
2018-05-08T23:21:21.617Z,33.10
2018-05-08T23:23:51.374Z,34.07
2018-05-08T23:26:21.897Z,31.40
2018-05-08T23:28:51.751Z,32.83
2018-05-08T23:31:21.515Z,32.80
2018-05-08T23:33:51.258Z,34.60
2018-05-08T23:36:20.997Z,34.40
2018-05-08T23:38:50.730Z,36.43
2018-05-08T23:41:20.461Z,35.73
2018-05-08T23:43:50.182Z,36.40
2018-05-08T23:46:20.728Z,35.33
2018-05-08T23:48:50.457Z,34.37
2018-05-08T23:51:20.238Z,33.37
2018-05-08T23:53:50.781Z,34.63
2018-05-08T23:56:20.615Z,35.10
2018-05-08T23:58:50.393Z,32.13
